Terminal Aerodrome Forecast
Issued by NWS Medford, OR

Home | Current Version | Previous Version | Text Only | Print | Product List | Glossary On
Versions: 1 2 3 4 5 6 7 8 9 10 11 12 13
000
FTUS46 KMFR 012325
TAFMFR
TAF
KMFR 012325Z 0200/0224 17011G19KT P6SM SKC
     FM020300 VRB03KT P6SM SKC
     FM021900 14008KT P6SM SCT060
     FM022200 27008KT P6SM SCT050=

USA.gov is the U.S. government's official web portal to all federal, state and local government web resources and services.